Sligo Airport - TAF
(Terminal Area Forecast)

Issued at 19:51 UTC on Fri. 18-Jun-21

--- METARS(SA) ---

METAR EISG(SLIGO) 181930Z 33006KT CAVOK 12/05 Q1018 =

--- TAFS() ---

TAF EISG(SLIGO) 181700Z 1818/1903 33008KT CAVOK BECMG 1822/1824

VRB03KT =

--- SIGMETS(WS) ---

IE - No VALID SIGMETS/Warnings FOR THIS AREA

--- SIGMETS Volcanic(WV) ---

IE - No VALID SIGMETS/Warnings FOR THIS AREA

--- SIGMETS(WS) ---

EGPX SIGMET 01 VALID 181630/182030 EGRR- EGPX

SCOTTISH FIR EMBD TS FCST WI N5544 E00247 - N5544 E00500 - N5500

E00500 - N5500 E00230 - N5544 E00247 TOP FL360 MOV NNE 20KT NC=

EGTT SIGMET 03 VALID 181630/182030 EGRR- EGTT

LONDON FIR EMBD TS FCST WI N5500 E00500 - N5247 E00306 - N5314

E00150 - N5500 E00230 - N5500 E00500 TOP FL360 MOV NNE 20KT NC=

Sligo Airport - METARs

Latest METARs for Sligo and Donegal Airports - updated every 30 mins